createdAt,value
2022-08-04T00:01:54.029Z,19.10
2022-08-04T00:07:47.375Z,19.20
2022-08-04T00:10:18.931Z,18.60
2022-08-04T00:12:51.412Z,19.20
2022-08-04T00:15:20.277Z,18.80
2022-08-04T00:18:09.732Z,19.10
2022-08-04T00:20:42.629Z,19.20
2022-08-04T00:23:10.983Z,18.60
2022-08-04T00:25:41.959Z,18.90
2022-08-04T00:28:10.125Z,19.00
2022-08-04T00:30:37.706Z,19.40
2022-08-04T00:33:05.196Z,20.70
2022-08-04T00:38:02.733Z,18.80
2022-08-04T00:40:48.301Z,18.70
2022-08-04T00:43:39.653Z,18.70
2022-08-04T00:46:40.588Z,19.80
2022-08-04T00:52:31.392Z,19.60
2022-08-04T01:03:51.417Z,19.90
2022-08-04T01:06:39.889Z,18.50
2022-08-04T01:09:48.609Z,18.50
2022-08-04T01:18:02.756Z,18.40
2022-08-04T01:21:12.958Z,18.10
2022-08-04T01:24:28.819Z,18.30
2022-08-04T01:28:00.699Z,17.50
2022-08-04T01:33:14.405Z,17.20
2022-08-04T01:38:26.622Z,19.20
2022-08-04T01:41:03.004Z,18.30
2022-08-04T01:43:33.389Z,18.30
2022-08-04T01:46:05.685Z,18.00
2022-08-04T01:48:39.400Z,19.50
2022-08-04T01:51:10.060Z,18.10
2022-08-04T01:53:43.246Z,18.20
2022-08-04T01:56:13.084Z,18.30
2022-08-04T01:58:41.698Z,18.80
2022-08-04T02:01:13.316Z,19.40
2022-08-04T02:04:18.242Z,18.20
2022-08-04T02:06:49.540Z,18.50
2022-08-04T02:09:54.665Z,18.20
2022-08-04T02:12:37.647Z,18.30
2022-08-04T02:15:42.508Z,18.00
2022-08-04T02:18:28.314Z,18.30
2022-08-04T02:21:02.175Z,18.20
2022-08-04T02:23:39.400Z,18.00
2022-08-04T02:26:22.794Z,18.30
2022-08-04T02:29:16.921Z,19.30
2022-08-04T02:32:01.601Z,16.70
2022-08-04T02:34:36.387Z,18.20
2022-08-04T02:37:06.354Z,17.60
2022-08-04T02:39:48.105Z,18.20
2022-08-04T02:42:18.472Z,17.10
2022-08-04T02:44:51.903Z,18.30
2022-08-04T02:47:23.242Z,18.20
2022-08-04T02:50:14.924Z,18.20
2022-08-04T02:53:02.927Z,17.50
2022-08-04T02:58:02.824Z,17.30
2022-08-04T03:03:06.195Z,18.00
2022-08-04T03:06:13.563Z,18.20
2022-08-04T03:09:29.505Z,18.10
2022-08-04T03:13:15.451Z,16.80
2022-08-04T03:16:18.772Z,17.80
2022-08-04T03:24:58.079Z,17.70
2022-08-04T03:27:59.415Z,17.70
2022-08-04T03:30:57.333Z,17.80
2022-08-04T03:33:51.294Z,17.40
2022-08-04T03:39:40.319Z,18.10
2022-08-04T03:42:38.505Z,17.80
2022-08-04T03:45:36.386Z,17.80
2022-08-04T03:48:30.641Z,17.80
2022-08-04T03:52:09.728Z,18.00
2022-08-04T03:55:17.530Z,17.90
2022-08-04T03:58:22.361Z,17.80
2022-08-04T04:01:17.526Z,18.60
2022-08-04T04:04:26.424Z,17.50
2022-08-04T04:07:36.131Z,18.40
2022-08-04T04:10:31.091Z,18.80
2022-08-04T04:16:06.926Z,18.30
2022-08-04T04:19:29.368Z,18.40
2022-08-04T04:23:13.919Z,18.30
2022-08-04T04:26:04.366Z,18.50
2022-08-04T04:29:07.720Z,18.90
2022-08-04T04:32:05.303Z,19.50
2022-08-04T04:34:57.090Z,19.00
2022-08-04T04:37:57.813Z,19.10
2022-08-04T04:40:52.066Z,19.30
2022-08-04T04:44:15.739Z,20.40
2022-08-04T04:47:43.000Z,18.80
2022-08-04T04:50:35.011Z,20.40
2022-08-04T04:53:45.172Z,23.10
2022-08-04T04:56:23.348Z,23.40
2022-08-04T04:58:55.806Z,24.00
2022-08-04T05:01:49.215Z,24.50
2022-08-04T05:05:05.627Z,25.50
2022-08-04T05:08:43.182Z,27.20
2022-08-04T05:11:48.626Z,26.60
2022-08-04T05:14:38.495Z,28.00
2022-08-04T05:17:33.518Z,28.50
2022-08-04T05:20:09.181Z,28.50
2022-08-04T05:22:37.127Z,28.50
2022-08-04T05:25:31.306Z,29.00
2022-08-04T05:28:18.932Z,29.90
2022-08-04T05:31:00.571Z,28.90
2022-08-04T05:33:53.575Z,30.70
2022-08-04T05:36:41.388Z,31.20
2022-08-04T05:39:21.899Z,30.20
2022-08-04T05:41:55.613Z,31.80
2022-08-04T05:44:28.772Z,31.70
2022-08-04T05:46:59.198Z,32.00
2022-08-04T05:49:30.537Z,33.20
2022-08-04T05:52:02.920Z,33.00
2022-08-04T05:54:36.910Z,33.40
2022-08-04T05:57:07.713Z,34.10
2022-08-04T05:59:43.433Z,34.10
2022-08-04T06:02:11.804Z,33.00
2022-08-04T06:04:43.769Z,33.60
2022-08-04T06:07:12.313Z,33.50
2022-08-04T06:12:19.869Z,33.70
2022-08-04T06:14:53.098Z,32.50
2022-08-04T06:19:57.815Z,34.70
2022-08-04T06:20:26.444Z,34.80
2022-08-04T06:23:00.911Z,33.80
2022-08-04T06:25:43.573Z,35.00
2022-08-04T06:30:48.338Z,34.60
2022-08-04T06:33:55.130Z,34.00
2022-08-04T06:36:23.591Z,34.30
2022-08-04T06:44:06.703Z,37.50
2022-08-04T06:46:41.581Z,38.00
2022-08-04T06:49:09.987Z,39.00
2022-08-04T06:51:49.052Z,38.60
2022-08-04T06:54:16.980Z,41.70
2022-08-04T06:56:50.078Z,41.30
2022-08-04T06:59:20.006Z,40.90
2022-08-04T07:01:50.352Z,39.20
2022-08-04T07:04:20.373Z,39.30
2022-08-04T07:06:48.833Z,39.40
2022-08-04T07:09:21.804Z,40.70
2022-08-04T07:11:50.203Z,39.40
2022-08-04T07:14:18.374Z,40.30
2022-08-04T07:16:48.909Z,38.80
2022-08-04T07:19:19.106Z,41.20
2022-08-04T07:22:24.603Z,39.30
2022-08-04T07:24:38.780Z,39.60
2022-08-04T07:27:09.861Z,40.70
2022-08-04T07:29:38.664Z,41.50
2022-08-04T07:32:07.257Z,42.70
2022-08-04T07:34:39.511Z,43.10
2022-08-04T07:39:47.821Z,43.90
2022-08-04T07:42:20.676Z,42.50
2022-08-04T07:44:48.592Z,43.40
2022-08-04T07:49:55.737Z,42.40
2022-08-04T07:52:29.182Z,42.00
2022-08-04T07:54:57.106Z,43.70
2022-08-04T07:57:41.160Z,42.10
2022-08-04T08:00:12.425Z,43.70
2022-08-04T08:02:43.607Z,44.40
2022-08-04T08:05:17.032Z,44.60
2022-08-04T08:07:54.701Z,43.50
2022-08-04T08:10:24.368Z,41.60
2022-08-04T08:12:53.953Z,41.80
2022-08-04T08:15:22.508Z,42.10
2022-08-04T08:17:59.667Z,42.60
2022-08-04T08:20:32.619Z,42.90
2022-08-04T08:23:03.637Z,43.90
2022-08-04T08:25:33.942Z,43.80
2022-08-04T08:28:05.525Z,45.20
2022-08-04T08:30:34.757Z,42.80
2022-08-04T08:33:13.799Z,43.90
2022-08-04T08:35:56.847Z,43.60
2022-08-04T08:38:58.091Z,42.50
2022-08-04T08:42:19.519Z,43.60
2022-08-04T08:45:17.693Z,44.00
2022-08-04T08:48:29.649Z,44.40
2022-08-04T08:51:31.768Z,44.00
2022-08-04T08:54:47.557Z,43.50
2022-08-04T08:57:29.773Z,42.00
2022-08-04T09:00:44.796Z,43.70
2022-08-04T09:03:57.518Z,44.40
2022-08-04T09:07:24.905Z,43.80
2022-08-04T09:10:23.047Z,44.40
2022-08-04T09:13:44.051Z,44.00
2022-08-04T09:16:39.711Z,43.90
2022-08-04T09:19:38.228Z,43.40
2022-08-04T09:22:34.006Z,43.90
2022-08-04T09:25:11.800Z,43.60
2022-08-04T09:28:05.844Z,45.60
2022-08-04T09:30:49.129Z,46.00
2022-08-04T09:33:44.530Z,44.30
2022-08-04T09:36:39.810Z,43.30
2022-08-04T09:39:12.180Z,43.90
2022-08-04T09:42:01.520Z,43.20
2022-08-04T09:44:55.247Z,43.40
2022-08-04T09:47:47.666Z,42.50
2022-08-04T09:50:36.777Z,43.40
2022-08-04T09:53:50.195Z,43.30
2022-08-04T09:56:49.347Z,44.20
2022-08-04T10:00:10.213Z,42.30
2022-08-04T10:02:52.493Z,44.10
2022-08-04T10:05:29.717Z,42.70
2022-08-04T10:08:16.249Z,46.10
2022-08-04T10:11:18.870Z,43.80
2022-08-04T10:14:33.661Z,43.10
2022-08-04T10:17:33.286Z,44.00
2022-08-04T10:20:14.355Z,43.40
2022-08-04T10:23:55.962Z,43.40
2022-08-04T10:26:29.605Z,42.40
2022-08-04T10:29:12.892Z,41.70
2022-08-04T10:32:07.062Z,41.00
2022-08-04T10:34:51.099Z,41.20
2022-08-04T10:37:59.267Z,41.90
2022-08-04T10:40:37.419Z,42.60
2022-08-04T10:43:33.524Z,39.50
2022-08-04T10:46:11.068Z,41.20
2022-08-04T10:49:07.711Z,41.40
2022-08-04T10:52:02.203Z,42.50
2022-08-04T10:55:09.941Z,41.20
2022-08-04T10:57:46.322Z,41.50
2022-08-04T11:00:19.933Z,41.50
2022-08-04T11:03:07.217Z,42.50
2022-08-04T11:05:55.055Z,41.50
2022-08-04T11:08:37.294Z,41.40
2022-08-04T11:11:31.161Z,38.90
2022-08-04T11:14:37.706Z,41.50
2022-08-04T11:17:17.458Z,41.70
2022-08-04T11:20:35.019Z,41.10
2022-08-04T11:23:17.107Z,40.90
2022-08-04T11:26:24.573Z,41.00
2022-08-04T11:29:05.941Z,41.10
2022-08-04T11:31:42.266Z,40.30
2022-08-04T11:37:43.352Z,40.40
2022-08-04T11:40:25.262Z,40.40
2022-08-04T11:43:10.884Z,39.90
2022-08-04T11:45:57.040Z,39.80
2022-08-04T11:48:35.890Z,40.10
2022-08-04T11:51:09.697Z,39.70
2022-08-04T11:53:42.607Z,40.20
2022-08-04T11:56:36.480Z,39.70
2022-08-04T11:59:10.809Z,39.90
2022-08-04T12:02:07.890Z,40.00
2022-08-04T12:07:44.501Z,39.40
2022-08-04T12:10:43.635Z,39.40
2022-08-04T12:13:40.994Z,39.20
2022-08-04T12:16:30.756Z,38.40
2022-08-04T12:19:03.152Z,36.30
2022-08-04T12:21:50.482Z,39.50
2022-08-04T12:25:01.775Z,39.40
2022-08-04T12:27:36.280Z,39.30
2022-08-04T12:30:59.876Z,38.80
2022-08-04T12:33:10.956Z,39.20
2022-08-04T12:36:10.530Z,39.70
2022-08-04T12:38:49.839Z,37.10
2022-08-04T12:41:26.159Z,38.40
2022-08-04T12:46:28.126Z,38.10
2022-08-04T12:49:03.862Z,38.10
2022-08-04T12:52:07.778Z,36.50
2022-08-04T12:54:30.676Z,39.50
2022-08-04T12:57:01.457Z,37.80
2022-08-04T12:59:38.818Z,37.10
2022-08-04T13:02:25.218Z,37.20
2022-08-04T13:04:55.432Z,36.80
2022-08-04T13:07:26.914Z,35.80
2022-08-04T13:09:54.985Z,37.20
2022-08-04T13:12:32.862Z,36.30
2022-08-04T13:15:21.033Z,36.10
2022-08-04T13:18:04.249Z,35.90
2022-08-04T13:20:38.273Z,35.80
2022-08-04T13:23:21.598Z,35.70
2022-08-04T13:28:45.234Z,35.80
2022-08-04T13:30:24.377Z,35.70
2022-08-04T13:31:19.958Z,35.20
2022-08-04T13:33:51.655Z,35.00
2022-08-04T13:36:24.553Z,35.20
2022-08-04T13:39:00.074Z,35.20
2022-08-04T13:41:31.204Z,35.10
2022-08-04T13:44:17.445Z,35.00
2022-08-04T13:47:22.749Z,35.00
2022-08-04T13:50:15.076Z,34.80
2022-08-04T13:55:44.021Z,34.50
2022-08-04T13:58:21.621Z,34.40
2022-08-04T14:01:00.097Z,34.60
2022-08-04T14:03:53.306Z,34.80
2022-08-04T14:06:49.488Z,34.30
2022-08-04T14:09:21.268Z,34.50
2022-08-04T14:12:10.548Z,34.40
2022-08-04T14:14:50.556Z,35.10
2022-08-04T14:17:24.854Z,34.30
2022-08-04T14:20:02.644Z,35.70
2022-08-04T14:22:35.953Z,34.20
2022-08-04T14:25:06.110Z,34.20
2022-08-04T14:27:53.970Z,34.50
2022-08-04T14:30:35.403Z,33.90
2022-08-04T14:34:02.816Z,33.90
2022-08-04T14:36:04.379Z,33.80
2022-08-04T14:38:51.649Z,33.70
2022-08-04T14:41:44.808Z,33.70
2022-08-04T14:46:55.184Z,32.60
2022-08-04T14:51:59.320Z,31.40
2022-08-04T14:54:33.085Z,34.60
2022-08-04T14:57:07.020Z,31.70
2022-08-04T14:59:59.436Z,33.30
2022-08-04T15:02:32.647Z,34.50
2022-08-04T15:06:02.440Z,33.20
2022-08-04T15:10:21.320Z,33.10
2022-08-04T15:20:35.280Z,32.90
2022-08-04T15:23:08.636Z,32.60
2022-08-04T15:25:47.675Z,34.00
2022-08-04T15:28:23.630Z,34.40
2022-08-04T15:30:54.116Z,32.70
2022-08-04T15:33:24.822Z,32.80
2022-08-04T15:36:40.054Z,31.60
2022-08-04T15:39:25.121Z,32.60
2022-08-04T15:42:20.976Z,32.40
2022-08-04T15:44:51.693Z,31.60
2022-08-04T15:50:13.485Z,32.40
2022-08-04T15:53:10.602Z,31.40
2022-08-04T15:55:43.836Z,32.30
2022-08-04T15:58:17.169Z,32.20
2022-08-04T16:01:04.485Z,32.10
2022-08-04T16:03:59.598Z,32.00
2022-08-04T16:16:42.410Z,31.60
2022-08-04T16:19:36.411Z,31.60
2022-08-04T16:22:04.946Z,31.70
2022-08-04T16:24:40.286Z,31.70
2022-08-04T16:27:10.100Z,31.70
2022-08-04T16:29:42.678Z,31.60
2022-08-04T16:32:20.474Z,30.70
2022-08-04T16:35:04.494Z,31.60
2022-08-04T16:37:38.337Z,31.90
2022-08-04T16:40:24.148Z,31.40
2022-08-04T16:47:49.629Z,30.80
2022-08-04T16:50:20.225Z,31.30
2022-08-04T16:52:55.784Z,30.90
2022-08-04T16:55:27.161Z,31.40
2022-08-04T16:58:01.588Z,31.10
2022-08-04T17:00:33.303Z,31.00
2022-08-04T17:03:11.402Z,31.10
2022-08-04T17:14:01.874Z,30.90
2022-08-04T17:18:54.207Z,30.80
2022-08-04T17:21:29.960Z,31.70
2022-08-04T17:24:15.027Z,30.60
2022-08-04T17:26:53.770Z,30.40
2022-08-04T17:29:43.210Z,30.50
2022-08-04T17:32:21.802Z,29.70
2022-08-04T17:34:52.843Z,30.40
2022-08-04T17:37:51.785Z,30.20
2022-08-04T17:40:18.502Z,30.00
2022-08-04T17:44:04.255Z,30.10
2022-08-04T17:46:29.183Z,30.60
2022-08-04T17:49:12.521Z,30.00
2022-08-04T17:52:05.898Z,30.80
2022-08-04T17:59:59.159Z,29.70
2022-08-04T18:02:34.852Z,29.30
2022-08-04T18:05:07.049Z,27.90
2022-08-04T18:08:40.479Z,30.60
2022-08-04T18:10:54.524Z,27.80
2022-08-04T18:13:28.215Z,28.60
2022-08-04T18:16:09.025Z,28.50
2022-08-04T18:42:02.311Z,27.30
2022-08-04T18:44:52.168Z,27.20
2022-08-04T18:47:29.850Z,27.20
2022-08-04T18:51:01.721Z,27.20
2022-08-04T18:55:56.631Z,27.00
2022-08-04T19:11:35.291Z,26.70
2022-08-04T19:13:54.633Z,26.40
2022-08-04T19:16:28.389Z,26.40
2022-08-04T19:27:06.859Z,26.00
2022-08-04T19:29:40.983Z,26.00
2022-08-04T19:32:14.513Z,25.90
2022-08-04T19:34:47.812Z,25.90
2022-08-04T19:37:58.173Z,25.70
2022-08-04T19:40:15.063Z,25.50
2022-08-04T19:45:15.845Z,25.40
2022-08-04T19:50:33.536Z,25.30
2022-08-04T19:58:09.336Z,24.90
2022-08-04T20:00:39.279Z,25.20
2022-08-04T20:03:13.814Z,25.10
2022-08-04T20:08:28.927Z,25.10
2022-08-04T20:16:28.407Z,23.80
2022-08-04T20:40:30.595Z,23.90
2022-08-04T20:42:59.619Z,23.90
2022-08-04T20:50:46.477Z,23.80
2022-08-04T20:55:55.161Z,23.00
2022-08-04T21:08:57.789Z,23.70
2022-08-04T21:14:01.392Z,23.60
2022-08-04T21:16:55.763Z,23.60
2022-08-04T21:24:26.313Z,23.30
2022-08-04T21:26:57.157Z,22.80
2022-08-04T21:29:34.564Z,22.50
2022-08-04T21:32:07.729Z,22.60
2022-08-04T21:34:38.941Z,22.60
2022-08-04T21:37:10.456Z,23.30
2022-08-04T21:44:58.479Z,22.50
2022-08-04T21:52:49.731Z,22.60
2022-08-04T22:13:07.015Z,21.90
2022-08-04T22:28:27.905Z,21.70
2022-08-04T22:30:57.505Z,22.00
2022-08-04T22:36:15.524Z,22.50
2022-08-04T22:38:51.144Z,22.80
2022-08-04T22:41:33.651Z,22.60
2022-08-04T22:44:02.612Z,20.50
2022-08-04T22:46:30.475Z,21.20
2022-08-04T22:48:58.291Z,20.70
2022-08-04T22:53:55.434Z,21.10
2022-08-04T23:14:59.180Z,20.90
2022-08-04T23:17:28.680Z,21.00
2022-08-04T23:19:59.227Z,20.90
2022-08-04T23:22:37.508Z,20.90
2022-08-04T23:25:16.302Z,20.90
2022-08-04T23:27:51.393Z,20.80
2022-08-04T23:30:29.718Z,20.60
2022-08-04T23:37:57.253Z,21.30
2022-08-04T23:40:34.407Z,20.70
2022-08-04T23:48:40.506Z,22.40
2022-08-04T23:51:15.075Z,20.70
2022-08-04T23:54:02.607Z,20.70
2022-08-04T23:56:33.923Z,20.30
